createdAt,value
2023-03-06T00:00:54.234Z,100.00
2023-03-06T00:03:22.383Z,100.00
2023-03-06T00:05:49.175Z,100.00
2023-03-06T00:08:15.981Z,100.00
2023-03-06T00:10:42.663Z,100.00
2023-03-06T00:13:12.694Z,100.00
2023-03-06T00:15:39.446Z,100.00
2023-03-06T00:18:06.674Z,100.00
2023-03-06T00:20:34.683Z,100.00
2023-03-06T00:23:01.385Z,100.00
2023-03-06T00:25:27.971Z,100.00
2023-03-06T00:27:54.540Z,100.00
2023-03-06T00:30:23.176Z,100.00
2023-03-06T00:32:50.025Z,100.00
2023-03-06T00:35:17.088Z,100.00
2023-03-06T00:37:49.734Z,100.00
2023-03-06T00:40:18.728Z,100.00
2023-03-06T00:42:47.340Z,100.00
2023-03-06T00:45:14.380Z,100.00
2023-03-06T00:47:41.709Z,100.00
2023-03-06T00:50:09.660Z,100.00
2023-03-06T00:52:36.551Z,100.00
2023-03-06T00:55:03.358Z,100.00
2023-03-06T00:57:29.960Z,100.00
2023-03-06T00:59:56.625Z,100.00
2023-03-06T01:02:23.295Z,100.00
2023-03-06T01:04:49.987Z,100.00
2023-03-06T01:07:16.632Z,100.00
2023-03-06T01:09:43.331Z,100.00
2023-03-06T01:12:10.277Z,100.00
2023-03-06T01:14:37.008Z,100.00
2023-03-06T01:17:03.895Z,100.00
2023-03-06T01:19:30.759Z,100.00
2023-03-06T01:21:57.430Z,100.00
2023-03-06T01:24:25.858Z,100.00
2023-03-06T01:26:52.607Z,100.00
2023-03-06T01:29:19.317Z,100.00
2023-03-06T01:31:46.082Z,100.00
2023-03-06T01:34:12.692Z,100.00
2023-03-06T01:36:39.298Z,100.00
2023-03-06T01:39:06.052Z,100.00
2023-03-06T01:41:33.066Z,100.00
2023-03-06T01:43:59.937Z,100.00
2023-03-06T01:46:38.868Z,100.00
2023-03-06T01:49:24.123Z,100.00
2023-03-06T01:52:11.718Z,100.00
2023-03-06T01:54:42.469Z,100.00
2023-03-06T01:57:13.192Z,100.00
2023-03-06T01:59:40.930Z,100.00
2023-03-06T02:02:09.282Z,100.00
2023-03-06T02:04:36.877Z,100.00
2023-03-06T02:07:06.952Z,100.00
2023-03-06T02:09:34.852Z,100.00
2023-03-06T02:12:03.433Z,100.00
2023-03-06T02:14:30.304Z,100.00
2023-03-06T02:16:57.120Z,100.00
2023-03-06T02:19:46.128Z,100.00
2023-03-06T02:22:12.900Z,100.00
2023-03-06T02:24:47.934Z,100.00
2023-03-06T02:27:15.353Z,100.00
2023-03-06T02:29:42.118Z,100.00
2023-03-06T02:32:08.973Z,100.00
2023-03-06T02:34:38.699Z,100.00
2023-03-06T02:37:09.102Z,100.00
2023-03-06T02:39:40.570Z,100.00
2023-03-06T02:42:07.307Z,100.00
2023-03-06T02:44:34.856Z,100.00
2023-03-06T02:47:01.659Z,100.00
2023-03-06T02:49:28.410Z,100.00
2023-03-06T02:51:55.034Z,100.00
2023-03-06T02:54:24.815Z,100.00
2023-03-06T02:56:51.409Z,100.00
2023-03-06T02:59:18.057Z,100.00
2023-03-06T03:01:44.734Z,100.00
2023-03-06T03:04:11.353Z,100.00
2023-03-06T03:06:38.037Z,100.00
2023-03-06T03:09:04.640Z,100.00
2023-03-06T03:11:31.252Z,100.00
2023-03-06T03:13:57.889Z,99.82
2023-03-06T03:16:24.672Z,99.39
2023-03-06T03:18:51.401Z,99.09
2023-03-06T03:21:18.536Z,98.70
2023-03-06T03:23:45.303Z,98.83
2023-03-06T03:26:17.411Z,98.99
2023-03-06T03:28:44.391Z,98.91
2023-03-06T03:31:11.566Z,99.01
2023-03-06T03:33:38.975Z,99.15
2023-03-06T03:36:07.642Z,99.28
2023-03-06T03:38:34.761Z,99.70
2023-03-06T03:41:01.912Z,99.87
2023-03-06T03:43:28.549Z,99.95
2023-03-06T03:45:55.121Z,100.00
2023-03-06T03:48:21.936Z,100.00
2023-03-06T03:50:48.759Z,100.00
2023-03-06T03:53:15.390Z,100.00
2023-03-06T03:55:42.027Z,100.00
2023-03-06T03:58:08.715Z,100.00
2023-03-06T04:00:35.374Z,100.00
2023-03-06T04:03:01.997Z,100.00
2023-03-06T04:05:28.601Z,100.00
2023-03-06T04:07:55.222Z,100.00
2023-03-06T04:10:21.851Z,100.00
2023-03-06T04:12:48.428Z,100.00
2023-03-06T04:15:15.015Z,100.00
2023-03-06T04:17:41.614Z,100.00
2023-03-06T04:20:08.953Z,100.00
2023-03-06T04:22:35.611Z,100.00
2023-03-06T04:25:02.246Z,100.00
2023-03-06T04:27:28.886Z,100.00
2023-03-06T04:29:56.530Z,100.00
2023-03-06T04:32:24.066Z,100.00
2023-03-06T04:34:50.943Z,100.00
2023-03-06T04:37:22.605Z,100.00
2023-03-06T04:39:49.302Z,100.00
2023-03-06T04:42:16.153Z,100.00
2023-03-06T04:44:42.796Z,100.00
2023-03-06T04:47:10.011Z,100.00
2023-03-06T04:49:36.763Z,100.00
2023-03-06T04:52:04.391Z,100.00
2023-03-06T04:54:31.113Z,100.00
2023-03-06T04:56:57.875Z,100.00
2023-03-06T04:59:24.677Z,100.00
2023-03-06T05:01:51.408Z,100.00
2023-03-06T05:04:18.072Z,100.00
2023-03-06T05:06:44.737Z,100.00
2023-03-06T05:09:11.426Z,100.00
2023-03-06T05:11:38.106Z,100.00
2023-03-06T05:14:04.892Z,100.00
2023-03-06T05:16:31.607Z,99.80
2023-03-06T05:18:58.236Z,99.83
2023-03-06T05:21:24.840Z,99.67
2023-03-06T05:23:51.394Z,99.88
2023-03-06T05:26:17.982Z,99.94
2023-03-06T05:28:44.929Z,100.00
2023-03-06T05:31:11.606Z,100.00
2023-03-06T05:33:38.249Z,100.00
2023-03-06T05:36:05.290Z,100.00
2023-03-06T05:38:32.497Z,100.00
2023-03-06T05:40:59.099Z,100.00
2023-03-06T05:43:25.821Z,100.00
2023-03-06T05:46:00.418Z,100.00
2023-03-06T05:48:27.102Z,100.00
2023-03-06T05:50:57.726Z,100.00
2023-03-06T05:53:24.475Z,100.00
2023-03-06T05:56:04.596Z,100.00
2023-03-06T05:58:32.810Z,100.00
2023-03-06T06:00:59.802Z,100.00
2023-03-06T06:03:26.819Z,100.00
2023-03-06T06:05:53.616Z,100.00
2023-03-06T06:08:20.812Z,100.00
2023-03-06T06:10:47.538Z,100.00
2023-03-06T06:13:14.287Z,100.00
2023-03-06T06:15:40.987Z,100.00
2023-03-06T06:18:08.007Z,99.87
2023-03-06T06:20:35.593Z,99.55
2023-03-06T06:23:10.350Z,99.32
2023-03-06T06:25:37.706Z,99.39
2023-03-06T06:28:05.867Z,99.15
2023-03-06T06:30:33.733Z,99.51
2023-03-06T06:33:00.704Z,99.44
2023-03-06T06:35:27.484Z,99.57
2023-03-06T06:37:54.107Z,100.00
2023-03-06T06:40:22.980Z,99.87
2023-03-06T06:42:49.630Z,100.00
2023-03-06T06:45:16.765Z,100.00
2023-03-06T06:47:44.030Z,100.00
2023-03-06T06:50:13.008Z,100.00
2023-03-06T06:52:39.759Z,100.00
2023-03-06T06:55:06.792Z,100.00
2023-03-06T06:57:33.484Z,100.00
2023-03-06T07:00:00.180Z,100.00
2023-03-06T07:02:27.066Z,100.00
2023-03-06T07:05:05.937Z,100.00
2023-03-06T07:07:37.536Z,100.00
2023-03-06T07:10:06.845Z,100.00
2023-03-06T07:12:35.262Z,100.00
2023-03-06T07:15:02.284Z,100.00
2023-03-06T07:17:29.278Z,100.00
2023-03-06T07:19:55.989Z,100.00
2023-03-06T07:22:23.386Z,100.00
2023-03-06T07:24:50.146Z,100.00
2023-03-06T07:27:16.857Z,100.00
2023-03-06T07:29:43.917Z,100.00
2023-03-06T07:32:16.670Z,100.00
2023-03-06T07:34:44.889Z,100.00
2023-03-06T07:37:11.830Z,100.00
2023-03-06T07:39:38.532Z,100.00
2023-03-06T07:42:07.671Z,100.00
2023-03-06T07:44:38.031Z,100.00
2023-03-06T07:47:05.579Z,100.00
2023-03-06T07:49:32.568Z,100.00
2023-03-06T07:52:04.392Z,100.00
2023-03-06T07:54:32.797Z,100.00
2023-03-06T07:56:59.435Z,100.00
2023-03-06T07:59:26.147Z,100.00
2023-03-06T08:01:55.114Z,100.00
2023-03-06T08:04:21.925Z,100.00
2023-03-06T08:06:50.110Z,100.00
2023-03-06T08:09:16.796Z,100.00
2023-03-06T08:11:45.432Z,100.00
2023-03-06T08:14:12.172Z,100.00
2023-03-06T08:16:38.891Z,100.00
2023-03-06T08:19:05.646Z,100.00
2023-03-06T08:21:32.408Z,100.00
2023-03-06T08:23:59.485Z,100.00
2023-03-06T08:26:29.183Z,100.00
2023-03-06T08:28:57.563Z,100.00
2023-03-06T08:31:34.501Z,100.00
2023-03-06T08:34:06.894Z,100.00
2023-03-06T08:36:33.754Z,100.00
2023-03-06T08:39:00.752Z,100.00
2023-03-06T08:41:27.517Z,100.00
2023-03-06T08:43:54.245Z,100.00
2023-03-06T08:46:22.549Z,100.00
2023-03-06T08:48:49.312Z,100.00
2023-03-06T08:51:16.867Z,100.00
2023-03-06T08:53:44.548Z,100.00
2023-03-06T08:56:19.297Z,100.00
2023-03-06T08:58:46.427Z,100.00
2023-03-06T09:01:17.777Z,100.00
2023-03-06T09:03:44.744Z,100.00
2023-03-06T09:06:11.746Z,100.00
2023-03-06T09:08:38.637Z,100.00
2023-03-06T09:11:05.331Z,100.00
2023-03-06T09:13:31.989Z,100.00
2023-03-06T09:15:58.615Z,100.00
2023-03-06T09:18:25.287Z,100.00
2023-03-06T09:20:51.965Z,100.00
2023-03-06T09:23:18.633Z,100.00
2023-03-06T09:25:46.200Z,100.00
2023-03-06T09:28:12.913Z,100.00
2023-03-06T09:30:41.161Z,100.00
2023-03-06T09:33:08.315Z,100.00
2023-03-06T09:35:35.633Z,100.00
2023-03-06T09:38:02.380Z,100.00
2023-03-06T09:41:02.980Z,100.00
2023-03-06T09:43:38.511Z,100.00
2023-03-06T09:46:29.870Z,100.00
2023-03-06T09:49:10.485Z,100.00
2023-03-06T09:51:47.320Z,100.00
2023-03-06T09:54:15.538Z,100.00
2023-03-06T09:56:49.940Z,100.00
2023-03-06T09:59:20.928Z,100.00
2023-03-06T10:02:28.372Z,100.00
2023-03-06T10:05:01.233Z,100.00
2023-03-06T10:07:38.928Z,100.00
2023-03-06T10:10:07.348Z,100.00
2023-03-06T10:12:40.430Z,100.00
2023-03-06T10:15:14.723Z,100.00
2023-03-06T10:17:42.710Z,100.00
2023-03-06T10:20:24.693Z,100.00
2023-03-06T10:23:13.316Z,100.00
2023-03-06T10:25:52.530Z,100.00
2023-03-06T10:28:30.589Z,100.00
2023-03-06T10:31:13.808Z,99.88
2023-03-06T10:33:43.422Z,99.91
2023-03-06T10:36:16.620Z,99.72
2023-03-06T10:38:44.600Z,99.23
2023-03-06T10:41:11.146Z,98.95
2023-03-06T10:43:45.142Z,98.30
2023-03-06T10:46:13.750Z,97.83
2023-03-06T10:48:42.452Z,97.73
2023-03-06T10:51:19.032Z,97.07
2023-03-06T10:53:53.734Z,96.92
2023-03-06T10:56:41.436Z,96.39
2023-03-06T10:59:29.479Z,95.65
2023-03-06T11:01:58.142Z,94.81
2023-03-06T11:04:30.436Z,94.03
2023-03-06T11:07:07.783Z,93.14
2023-03-06T11:09:34.793Z,91.55
2023-03-06T11:12:32.387Z,90.06
2023-03-06T11:15:14.413Z,88.63
2023-03-06T11:18:28.531Z,87.88
2023-03-06T11:20:55.895Z,86.60
2023-03-06T11:23:22.500Z,85.24
2023-03-06T11:26:01.439Z,84.44
2023-03-06T11:28:34.122Z,84.60
2023-03-06T11:31:03.726Z,84.19
2023-03-06T11:34:02.593Z,83.58
2023-03-06T11:36:55.594Z,82.14
2023-03-06T11:39:37.384Z,81.22
2023-03-06T11:42:13.119Z,80.01
2023-03-06T11:45:18.156Z,78.47
2023-03-06T11:47:50.368Z,77.60
2023-03-06T11:50:28.604Z,77.26
2023-03-06T11:53:00.512Z,76.33
2023-03-06T11:55:51.022Z,74.49
2023-03-06T11:58:38.391Z,72.33
2023-03-06T12:01:17.052Z,70.99
2023-03-06T12:03:50.356Z,69.86
2023-03-06T12:06:44.901Z,67.85
2023-03-06T12:09:24.537Z,65.38
2023-03-06T12:12:14.803Z,63.50
2023-03-06T12:14:50.482Z,61.92
2023-03-06T12:17:29.888Z,60.33
2023-03-06T12:20:32.085Z,59.88
2023-03-06T12:23:17.035Z,59.47
2023-03-06T12:25:49.166Z,58.53
2023-03-06T12:28:45.990Z,58.27
2023-03-06T12:31:13.016Z,57.98
2023-03-06T12:34:10.223Z,56.34
2023-03-06T12:36:48.993Z,55.62
2023-03-06T12:39:43.742Z,55.67
2023-03-06T12:42:39.317Z,55.33
2023-03-06T12:45:30.001Z,55.22
2023-03-06T12:47:57.926Z,54.97
2023-03-06T12:50:38.284Z,54.40
2023-03-06T12:53:07.599Z,53.70
2023-03-06T12:55:42.850Z,53.41
2023-03-06T12:58:30.683Z,54.19
2023-03-06T13:01:15.708Z,53.92
2023-03-06T13:04:19.720Z,51.87
2023-03-06T13:07:14.434Z,50.74
2023-03-06T13:10:02.408Z,50.36
2023-03-06T13:12:50.200Z,49.96
2023-03-06T13:15:38.340Z,49.27
2023-03-06T13:18:23.362Z,49.45
2023-03-06T13:20:57.602Z,49.56
2023-03-06T13:23:43.087Z,49.78
2023-03-06T13:26:12.628Z,50.10
2023-03-06T13:28:45.172Z,50.57
2023-03-06T13:31:27.682Z,51.63
2023-03-06T13:34:03.167Z,52.05
2023-03-06T13:36:39.904Z,52.60
2023-03-06T13:39:10.119Z,52.88
2023-03-06T13:41:41.756Z,53.66
2023-03-06T13:44:28.536Z,53.92
2023-03-06T13:47:39.757Z,53.98
2023-03-06T13:50:57.094Z,53.13
2023-03-06T13:53:23.694Z,52.34
2023-03-06T13:55:56.571Z,52.40
2023-03-06T13:58:41.819Z,52.42
2023-03-06T14:01:33.498Z,53.02
2023-03-06T14:04:18.957Z,53.51
2023-03-06T14:07:01.700Z,55.15
2023-03-06T14:09:32.392Z,56.81
2023-03-06T14:12:07.514Z,58.30
2023-03-06T14:14:39.656Z,59.35
2023-03-06T14:17:21.921Z,60.57
2023-03-06T14:19:49.163Z,60.81
2023-03-06T14:22:23.182Z,60.33
2023-03-06T14:25:05.833Z,59.51
2023-03-06T14:27:47.880Z,59.60
2023-03-06T14:30:17.546Z,60.09
2023-03-06T14:32:44.494Z,59.72
2023-03-06T14:35:21.405Z,60.50
2023-03-06T14:37:52.521Z,61.26
2023-03-06T14:40:28.099Z,61.66
2023-03-06T14:43:33.845Z,61.94
2023-03-06T14:46:08.014Z,62.12
2023-03-06T14:48:39.434Z,62.34
2023-03-06T14:51:07.790Z,63.38
2023-03-06T14:53:34.988Z,63.94
2023-03-06T14:56:05.935Z,64.59
2023-03-06T14:58:43.947Z,65.20
2023-03-06T15:01:13.272Z,65.68
2023-03-06T15:03:47.135Z,66.77
2023-03-06T15:06:45.665Z,67.18
2023-03-06T15:09:16.694Z,67.53
2023-03-06T15:12:04.555Z,67.20
2023-03-06T15:14:39.545Z,67.42
2023-03-06T15:17:18.473Z,67.22
2023-03-06T15:19:56.125Z,66.86
2023-03-06T15:22:31.996Z,66.47
2023-03-06T15:25:18.741Z,65.97
2023-03-06T15:27:49.902Z,65.52
2023-03-06T15:30:26.624Z,65.15
2023-03-06T15:33:19.893Z,64.05
2023-03-06T15:36:03.965Z,63.86
2023-03-06T15:38:39.874Z,64.03
2023-03-06T15:41:20.468Z,64.31
2023-03-06T15:43:49.942Z,64.77
2023-03-06T15:46:16.680Z,65.81
2023-03-06T15:48:54.189Z,66.53
2023-03-06T15:51:20.871Z,66.77
2023-03-06T15:53:48.100Z,67.82
2023-03-06T15:56:28.199Z,68.01
2023-03-06T15:58:56.085Z,68.10
2023-03-06T16:01:23.523Z,68.58
2023-03-06T16:03:55.481Z,69.00
2023-03-06T16:06:27.001Z,69.53
2023-03-06T16:08:56.502Z,70.52
2023-03-06T16:11:41.973Z,70.74
2023-03-06T16:14:18.878Z,71.06
2023-03-06T16:16:45.896Z,71.51
2023-03-06T16:19:29.015Z,72.42
2023-03-06T16:21:58.855Z,73.75
2023-03-06T16:24:26.712Z,75.75
2023-03-06T16:26:55.790Z,77.52
2023-03-06T16:29:24.917Z,79.34
2023-03-06T16:31:58.975Z,80.81
2023-03-06T16:34:26.025Z,81.95
2023-03-06T16:36:52.994Z,83.07
2023-03-06T16:39:21.725Z,83.87
2023-03-06T16:41:50.456Z,84.44
2023-03-06T16:44:17.127Z,85.11
2023-03-06T16:46:46.061Z,85.28
2023-03-06T16:49:20.981Z,86.20
2023-03-06T16:51:48.253Z,86.08
2023-03-06T16:54:18.368Z,86.28
2023-03-06T16:56:45.367Z,86.70
2023-03-06T16:59:12.462Z,87.05
2023-03-06T17:01:41.165Z,87.30
2023-03-06T17:04:08.353Z,87.43
2023-03-06T17:06:35.078Z,87.28
2023-03-06T17:09:01.987Z,87.28
2023-03-06T17:11:38.660Z,87.41
2023-03-06T17:14:06.967Z,87.46
2023-03-06T17:16:40.563Z,87.24
2023-03-06T17:19:07.846Z,87.23
2023-03-06T17:21:35.527Z,87.09
2023-03-06T17:24:03.887Z,87.05
2023-03-06T17:26:30.650Z,86.98
2023-03-06T17:28:57.464Z,87.05
2023-03-06T17:31:26.772Z,87.07
2023-03-06T17:33:57.223Z,87.12
2023-03-06T17:36:23.986Z,86.92
2023-03-06T17:38:50.845Z,86.70
2023-03-06T17:41:17.520Z,86.33
2023-03-06T17:43:44.233Z,86.25
2023-03-06T17:46:13.016Z,86.08
2023-03-06T17:48:39.959Z,86.07
2023-03-06T17:51:07.813Z,86.15
2023-03-06T17:53:34.780Z,86.24
2023-03-06T17:56:07.101Z,86.92
2023-03-06T17:58:34.355Z,87.23
2023-03-06T18:01:01.936Z,87.84
2023-03-06T18:03:28.774Z,88.19
2023-03-06T18:06:02.696Z,88.69
2023-03-06T18:08:29.995Z,88.81
2023-03-06T18:11:01.111Z,88.68
2023-03-06T18:13:27.800Z,89.08
2023-03-06T18:15:54.744Z,89.13
2023-03-06T18:18:21.327Z,89.62
2023-03-06T18:20:50.912Z,89.34
2023-03-06T18:23:17.851Z,89.92
2023-03-06T18:25:44.881Z,90.05
2023-03-06T18:28:11.595Z,90.13
2023-03-06T18:30:41.408Z,90.17
2023-03-06T18:33:09.374Z,90.33
2023-03-06T18:35:46.771Z,89.96
2023-03-06T18:38:13.727Z,89.89
2023-03-06T18:40:41.843Z,89.82
2023-03-06T18:43:08.522Z,89.27
2023-03-06T18:45:35.219Z,89.10
2023-03-06T18:48:05.035Z,88.91
2023-03-06T18:50:31.813Z,88.69
2023-03-06T18:52:58.390Z,88.38
2023-03-06T18:55:25.119Z,87.70
2023-03-06T18:57:51.751Z,87.41
2023-03-06T19:00:19.067Z,87.10
2023-03-06T19:02:45.689Z,86.86
2023-03-06T19:05:12.627Z,86.61
2023-03-06T19:07:39.327Z,86.66
2023-03-06T19:10:06.625Z,86.38
2023-03-06T19:12:33.757Z,85.93
2023-03-06T19:15:00.375Z,85.56
2023-03-06T19:17:27.008Z,85.54
2023-03-06T19:19:55.124Z,85.00
2023-03-06T19:22:22.247Z,84.74
2023-03-06T19:25:02.719Z,84.50
2023-03-06T19:27:30.686Z,84.30
2023-03-06T19:29:57.389Z,83.88
2023-03-06T19:32:25.206Z,83.75
2023-03-06T19:34:52.120Z,83.32
2023-03-06T19:37:18.964Z,83.05
2023-03-06T19:39:45.627Z,82.97
2023-03-06T19:42:13.892Z,82.73
2023-03-06T19:44:40.813Z,82.29
2023-03-06T19:47:07.523Z,82.20
2023-03-06T19:49:34.863Z,81.69
2023-03-06T19:52:01.540Z,81.49
2023-03-06T19:54:28.234Z,81.42
2023-03-06T19:56:54.912Z,81.32
2023-03-06T19:59:21.616Z,80.85
2023-03-06T20:01:48.310Z,80.65
2023-03-06T20:04:16.597Z,80.70
2023-03-06T20:06:45.537Z,80.69
2023-03-06T20:09:12.690Z,80.64
2023-03-06T20:11:39.442Z,80.60
2023-03-06T20:14:07.772Z,80.69
2023-03-06T20:16:35.212Z,80.45
2023-03-06T20:19:08.710Z,80.38
2023-03-06T20:21:37.703Z,80.65
2023-03-06T20:24:09.127Z,79.98
2023-03-06T20:26:37.082Z,79.81
2023-03-06T20:29:03.896Z,80.00
2023-03-06T20:31:30.765Z,79.82
2023-03-06T20:33:59.287Z,79.78
2023-03-06T20:36:30.946Z,79.64
2023-03-06T20:39:00.219Z,79.82
2023-03-06T20:41:28.230Z,80.22
2023-03-06T20:43:54.985Z,80.02
2023-03-06T20:46:22.810Z,80.56
2023-03-06T20:48:50.987Z,80.47
2023-03-06T20:51:21.694Z,81.09
2023-03-06T20:53:49.886Z,81.29
2023-03-06T20:56:18.723Z,81.65
2023-03-06T20:58:45.435Z,81.84
2023-03-06T21:01:23.513Z,82.03
2023-03-06T21:03:50.949Z,82.10
2023-03-06T21:06:18.242Z,82.17
2023-03-06T21:08:45.306Z,82.33
2023-03-06T21:11:12.029Z,81.97
2023-03-06T21:13:38.655Z,82.21
2023-03-06T21:16:11.057Z,81.92
2023-03-06T21:18:37.983Z,82.00
2023-03-06T21:21:09.211Z,82.27
2023-03-06T21:23:35.921Z,82.41
2023-03-06T21:26:02.970Z,82.53
2023-03-06T21:28:29.731Z,83.17
2023-03-06T21:30:56.809Z,84.18
2023-03-06T21:33:23.536Z,84.85
2023-03-06T21:35:50.295Z,85.62
2023-03-06T21:38:17.093Z,86.52
2023-03-06T21:40:45.567Z,87.44
2023-03-06T21:43:12.963Z,88.42
2023-03-06T21:45:44.165Z,89.42
2023-03-06T21:48:10.784Z,90.15
2023-03-06T21:50:37.396Z,91.23
2023-03-06T21:53:04.166Z,92.04
2023-03-06T21:55:30.937Z,93.06
2023-03-06T21:57:57.790Z,93.72
2023-03-06T22:00:25.863Z,94.61
2023-03-06T22:02:53.109Z,95.13
2023-03-06T22:05:19.868Z,95.76
2023-03-06T22:07:46.571Z,96.63
2023-03-06T22:10:14.418Z,97.29
2023-03-06T22:12:41.521Z,97.49
2023-03-06T22:15:09.588Z,98.08
2023-03-06T22:17:36.345Z,98.63
2023-03-06T22:20:03.060Z,99.14
2023-03-06T22:22:30.920Z,99.70
2023-03-06T22:24:57.838Z,100.00
2023-03-06T22:27:24.722Z,100.00
2023-03-06T22:29:52.714Z,100.00
2023-03-06T22:32:19.558Z,100.00
2023-03-06T22:34:46.254Z,100.00
2023-03-06T22:37:12.903Z,100.00
2023-03-06T22:39:39.514Z,100.00
2023-03-06T22:42:06.226Z,100.00
2023-03-06T22:44:32.852Z,100.00
2023-03-06T22:46:59.527Z,100.00
2023-03-06T22:49:26.150Z,100.00
2023-03-06T22:51:52.736Z,100.00
2023-03-06T22:54:19.437Z,100.00
2023-03-06T22:56:46.060Z,100.00
2023-03-06T22:59:12.662Z,100.00
2023-03-06T23:01:39.449Z,100.00
2023-03-06T23:04:11.371Z,100.00
2023-03-06T23:06:40.571Z,100.00
2023-03-06T23:09:12.972Z,100.00
2023-03-06T23:11:39.600Z,100.00
2023-03-06T23:14:06.476Z,100.00
2023-03-06T23:16:33.442Z,100.00
2023-03-06T23:19:00.340Z,100.00
2023-03-06T23:21:27.061Z,100.00
2023-03-06T23:23:54.531Z,100.00
2023-03-06T23:26:24.052Z,100.00
2023-03-06T23:28:51.136Z,100.00
2023-03-06T23:31:20.969Z,100.00
2023-03-06T23:33:48.129Z,100.00
2023-03-06T23:36:16.371Z,100.00
2023-03-06T23:38:43.661Z,100.00
2023-03-06T23:41:15.588Z,100.00
2023-03-06T23:43:42.771Z,100.00
2023-03-06T23:46:09.515Z,100.00
2023-03-06T23:48:38.081Z,100.00
2023-03-06T23:51:06.965Z,100.00
2023-03-06T23:53:33.558Z,100.00
2023-03-06T23:56:00.248Z,100.00
2023-03-06T23:58:27.227Z,100.00
